createdAt,value
2023-02-19T00:00:09.622Z,75.82
2023-02-19T00:03:04.855Z,75.89
2023-02-19T00:05:36.322Z,75.82
2023-02-19T00:08:05.730Z,75.58
2023-02-19T00:10:35.086Z,75.41
2023-02-19T00:13:04.111Z,75.71
2023-02-19T00:15:35.663Z,75.47
2023-02-19T00:18:04.832Z,75.49
2023-02-19T00:20:34.091Z,75.57
2023-02-19T00:23:03.071Z,75.44
2023-02-19T00:25:32.394Z,75.25
2023-02-19T00:28:01.630Z,75.33
2023-02-19T00:30:30.998Z,75.67
2023-02-19T00:33:01.445Z,75.90
2023-02-19T00:35:30.877Z,75.39
2023-02-19T00:37:59.861Z,75.44
2023-02-19T00:40:29.290Z,75.20
2023-02-19T00:42:58.258Z,75.57
2023-02-19T00:45:28.248Z,76.11
2023-02-19T00:47:57.431Z,75.77
2023-02-19T00:50:28.582Z,75.57
2023-02-19T00:52:57.864Z,75.75
2023-02-19T00:55:27.242Z,76.32
2023-02-19T00:57:56.271Z,76.33
2023-02-19T01:00:25.702Z,76.31
2023-02-19T01:02:55.095Z,76.17
2023-02-19T01:05:29.814Z,75.60
2023-02-19T01:07:58.885Z,75.47
2023-02-19T01:10:28.351Z,75.91
2023-02-19T01:12:57.417Z,76.35
2023-02-19T01:15:26.756Z,76.02
2023-02-19T01:17:56.047Z,76.25
2023-02-19T01:20:26.159Z,75.71
2023-02-19T01:22:56.595Z,75.95
2023-02-19T01:25:25.965Z,75.67
2023-02-19T01:27:55.015Z,75.47
2023-02-19T01:30:24.449Z,75.54
2023-02-19T01:32:53.493Z,75.71
2023-02-19T01:35:23.062Z,76.09
2023-02-19T01:37:52.252Z,76.10
2023-02-19T01:40:23.088Z,76.75
2023-02-19T01:42:52.289Z,76.05
2023-02-19T01:45:30.027Z,76.16
2023-02-19T01:48:10.475Z,76.72
2023-02-19T01:50:45.264Z,76.39
2023-02-19T01:53:17.953Z,76.78
2023-02-19T01:55:53.212Z,77.06
2023-02-19T01:58:22.845Z,76.91
2023-02-19T02:00:52.638Z,77.44
2023-02-19T02:03:22.312Z,76.86
2023-02-19T02:05:57.217Z,77.55
2023-02-19T02:08:45.572Z,77.15
2023-02-19T02:11:17.023Z,77.19
2023-02-19T02:13:46.531Z,77.10
2023-02-19T02:16:24.401Z,77.66
2023-02-19T02:19:02.977Z,77.50
2023-02-19T02:21:58.990Z,77.68
2023-02-19T02:24:54.183Z,77.19
2023-02-19T02:27:54.244Z,77.50
2023-02-19T02:30:40.848Z,77.49
2023-02-19T02:33:21.861Z,77.72
2023-02-19T02:35:55.190Z,77.78
2023-02-19T02:38:29.901Z,77.94
2023-02-19T02:40:59.734Z,77.57
2023-02-19T02:43:29.226Z,77.42
2023-02-19T02:46:00.093Z,77.77
2023-02-19T02:48:38.413Z,77.70
2023-02-19T02:51:17.458Z,77.23
2023-02-19T02:54:15.691Z,77.11
2023-02-19T02:56:46.465Z,76.70
2023-02-19T02:59:19.849Z,76.43
2023-02-19T03:02:12.405Z,76.89
2023-02-19T03:05:08.333Z,76.70
2023-02-19T03:07:40.884Z,76.11
2023-02-19T03:10:14.588Z,76.45
2023-02-19T03:13:04.121Z,76.45
2023-02-19T03:15:55.596Z,76.19
2023-02-19T03:18:47.411Z,76.23
2023-02-19T03:21:20.415Z,75.92
2023-02-19T03:24:09.287Z,75.85
2023-02-19T03:26:40.996Z,75.85
2023-02-19T03:29:33.852Z,75.98
2023-02-19T03:32:11.190Z,75.90
2023-02-19T03:34:47.374Z,75.94
2023-02-19T03:37:25.160Z,75.92
2023-02-19T03:39:56.519Z,75.92
2023-02-19T03:42:37.439Z,75.81
2023-02-19T03:45:25.015Z,75.92
2023-02-19T03:48:05.093Z,76.00
2023-02-19T03:50:46.151Z,75.59
2023-02-19T03:53:25.782Z,76.27
2023-02-19T03:56:07.161Z,75.85
2023-02-19T03:58:45.960Z,75.81
2023-02-19T04:01:20.878Z,75.62
2023-02-19T04:03:56.033Z,75.85
2023-02-19T04:06:29.430Z,75.77
2023-02-19T04:09:01.570Z,75.54
2023-02-19T04:11:33.652Z,75.82
2023-02-19T04:14:11.333Z,75.63
2023-02-19T04:16:45.373Z,75.34
2023-02-19T04:19:19.581Z,75.65
2023-02-19T04:21:54.188Z,75.60
2023-02-19T04:24:29.114Z,75.69
2023-02-19T04:26:58.416Z,75.82
2023-02-19T04:29:27.768Z,75.84
2023-02-19T04:31:56.899Z,75.63
2023-02-19T04:34:26.328Z,75.75
2023-02-19T04:36:56.702Z,76.25
2023-02-19T04:39:26.071Z,75.82
2023-02-19T04:41:55.147Z,76.62
2023-02-19T04:44:24.599Z,76.48
2023-02-19T04:46:53.670Z,75.92
2023-02-19T04:49:22.980Z,76.28
2023-02-19T04:51:51.964Z,75.91
2023-02-19T04:54:22.647Z,76.13
2023-02-19T04:56:51.809Z,75.86
2023-02-19T04:59:21.062Z,75.62
2023-02-19T05:01:50.095Z,76.13
2023-02-19T05:04:19.501Z,75.99
2023-02-19T05:06:48.567Z,76.55
2023-02-19T05:09:18.262Z,76.19
2023-02-19T05:11:48.672Z,76.36
2023-02-19T05:14:18.343Z,77.20
2023-02-19T05:16:47.394Z,76.73
2023-02-19T05:19:16.659Z,76.53
2023-02-19T05:21:45.721Z,76.17
2023-02-19T05:24:15.046Z,76.09
2023-02-19T05:26:45.441Z,75.95
2023-02-19T05:29:16.404Z,76.01
2023-02-19T05:31:45.720Z,75.79
2023-02-19T05:34:15.112Z,76.19
2023-02-19T05:36:44.286Z,75.78
2023-02-19T05:39:13.920Z,76.23
2023-02-19T05:41:42.998Z,76.21
2023-02-19T05:44:12.716Z,76.26
2023-02-19T05:46:43.206Z,76.74
2023-02-19T05:49:13.130Z,76.31
2023-02-19T05:51:42.252Z,76.94
2023-02-19T05:54:11.549Z,76.81
2023-02-19T05:56:43.151Z,77.09
2023-02-19T05:59:18.009Z,77.27
2023-02-19T06:01:49.249Z,77.01
2023-02-19T06:04:20.058Z,77.59
2023-02-19T06:06:50.485Z,76.90
2023-02-19T06:09:19.856Z,77.25
2023-02-19T06:11:48.819Z,77.27
2023-02-19T06:14:18.257Z,76.81
2023-02-19T06:16:48.699Z,77.03
2023-02-19T06:19:18.085Z,77.10
2023-02-19T06:21:47.175Z,76.92
2023-02-19T06:24:16.417Z,76.85
2023-02-19T06:26:46.551Z,77.20
2023-02-19T06:29:15.660Z,77.62
2023-02-19T06:31:44.895Z,78.11
2023-02-19T06:34:15.799Z,77.88
2023-02-19T06:36:44.919Z,77.76
2023-02-19T06:39:14.248Z,78.27
2023-02-19T06:41:43.375Z,78.24
2023-02-19T06:44:12.655Z,78.06
2023-02-19T06:46:41.723Z,77.73
2023-02-19T06:49:11.045Z,78.06
2023-02-19T06:51:41.456Z,77.87
2023-02-19T06:54:10.986Z,77.48
2023-02-19T06:56:41.142Z,77.72
2023-02-19T06:59:13.450Z,77.21
2023-02-19T07:01:42.775Z,77.12
2023-02-19T07:04:12.712Z,76.85
2023-02-19T07:06:43.611Z,77.24
2023-02-19T07:09:13.215Z,77.03
2023-02-19T07:11:42.491Z,77.10
2023-02-19T07:14:17.626Z,77.82
2023-02-19T07:16:47.417Z,77.69
2023-02-19T07:19:17.492Z,77.63
2023-02-19T07:21:47.894Z,78.19
2023-02-19T07:24:17.442Z,78.13
2023-02-19T07:26:46.442Z,78.07
2023-02-19T07:29:15.781Z,78.32
2023-02-19T07:31:45.144Z,78.41
2023-02-19T07:34:14.533Z,78.47
2023-02-19T07:36:43.481Z,78.45
2023-02-19T07:39:15.771Z,78.54
2023-02-19T07:41:44.860Z,77.92
2023-02-19T07:44:25.369Z,78.07
2023-02-19T07:46:54.433Z,78.58
2023-02-19T07:49:23.732Z,78.04
2023-02-19T07:51:52.790Z,78.80
2023-02-19T07:54:23.567Z,78.39
2023-02-19T07:56:52.704Z,78.46
2023-02-19T07:59:22.628Z,77.98
2023-02-19T08:02:08.975Z,78.19
2023-02-19T08:04:38.382Z,78.10
2023-02-19T08:07:07.450Z,77.96
2023-02-19T08:09:38.207Z,77.61
2023-02-19T08:12:24.886Z,78.12
2023-02-19T08:14:54.371Z,78.05
2023-02-19T08:17:23.658Z,77.82
2023-02-19T08:19:52.990Z,77.66
2023-02-19T08:22:22.172Z,77.39
2023-02-19T08:24:52.870Z,77.23
2023-02-19T08:27:21.921Z,77.59
2023-02-19T08:29:51.185Z,77.05
2023-02-19T08:32:20.231Z,76.97
2023-02-19T08:34:49.574Z,76.50
2023-02-19T08:37:19.387Z,76.17
2023-02-19T08:39:48.844Z,76.32
2023-02-19T08:42:19.258Z,76.29
2023-02-19T08:44:48.959Z,76.01
2023-02-19T08:47:18.196Z,75.57
2023-02-19T08:49:47.592Z,75.89
2023-02-19T08:52:16.568Z,75.30
2023-02-19T08:54:45.915Z,75.37
2023-02-19T08:57:15.106Z,74.23
2023-02-19T08:59:45.768Z,74.20
2023-02-19T09:02:14.831Z,74.86
2023-02-19T09:04:44.136Z,73.97
2023-02-19T09:07:14.470Z,74.11
2023-02-19T09:09:43.820Z,73.85
2023-02-19T09:12:14.008Z,73.42
2023-02-19T09:14:45.916Z,73.27
2023-02-19T09:17:14.999Z,72.95
2023-02-19T09:19:44.347Z,72.79
2023-02-19T09:22:13.433Z,72.52
2023-02-19T09:24:43.655Z,72.37
2023-02-19T09:27:18.605Z,71.70
2023-02-19T09:29:49.363Z,71.04
2023-02-19T09:32:19.301Z,71.12
2023-02-19T09:34:48.890Z,71.51
2023-02-19T09:37:17.868Z,70.65
2023-02-19T09:39:47.209Z,70.26
2023-02-19T09:42:19.553Z,70.21
2023-02-19T09:44:53.349Z,69.69
2023-02-19T09:47:24.805Z,69.45
2023-02-19T09:49:57.058Z,69.23
2023-02-19T09:52:33.591Z,68.10
2023-02-19T09:55:10.424Z,66.67
2023-02-19T09:57:39.909Z,68.03
2023-02-19T10:00:23.342Z,67.10
2023-02-19T10:03:00.493Z,64.10
2023-02-19T10:05:30.356Z,66.31
2023-02-19T10:08:00.292Z,64.60
2023-02-19T10:10:31.709Z,65.29
2023-02-19T10:17:59.237Z,65.32
2023-02-19T10:20:29.164Z,64.77
2023-02-19T10:23:03.200Z,65.56
2023-02-19T10:25:34.572Z,65.00
2023-02-19T10:28:05.404Z,63.96
2023-02-19T10:30:37.546Z,64.27
2023-02-19T10:33:13.329Z,63.55
2023-02-19T10:35:55.557Z,61.92
2023-02-19T10:38:28.327Z,62.86
2023-02-19T10:41:05.387Z,63.30
2023-02-19T10:43:37.253Z,63.02
2023-02-19T10:46:15.378Z,62.74
2023-02-19T10:48:51.442Z,63.01
2023-02-19T10:51:22.984Z,61.99
2023-02-19T10:54:05.104Z,59.63
2023-02-19T10:56:34.915Z,61.07
2023-02-19T10:59:24.402Z,58.33
2023-02-19T11:01:58.812Z,59.73
2023-02-19T11:04:34.051Z,59.46
2023-02-19T11:07:10.793Z,59.85
2023-02-19T11:09:41.525Z,60.13
2023-02-19T11:12:12.645Z,56.47
2023-02-19T11:14:45.602Z,57.05
2023-02-19T11:17:25.087Z,56.17
2023-02-19T11:19:57.690Z,54.36
2023-02-19T11:22:33.385Z,50.63
2023-02-19T11:25:07.541Z,53.47
2023-02-19T11:27:37.675Z,53.97
2023-02-19T11:30:48.565Z,54.83
2023-02-19T11:33:27.424Z,54.03
2023-02-19T11:36:18.884Z,54.20
2023-02-19T11:38:48.398Z,53.11
2023-02-19T11:41:28.319Z,53.02
2023-02-19T11:44:08.047Z,52.29
2023-02-19T11:46:52.133Z,53.37
2023-02-19T11:49:38.487Z,53.42
2023-02-19T11:52:23.469Z,53.25
2023-02-19T11:54:58.262Z,51.07
2023-02-19T11:57:41.657Z,52.46
2023-02-19T12:00:55.812Z,50.37
2023-02-19T12:09:08.612Z,50.49
2023-02-19T12:30:00.521Z,48.53
2023-02-19T12:33:17.151Z,48.28
2023-02-19T12:35:56.551Z,48.74
2023-02-19T12:50:28.828Z,47.50
2023-02-19T12:53:11.197Z,47.92
2023-02-19T12:55:44.157Z,48.90
2023-02-19T12:58:21.874Z,48.32
2023-02-19T13:24:26.298Z,47.95
2023-02-19T13:27:13.960Z,48.08
2023-02-19T13:30:01.735Z,46.28
2023-02-19T13:32:52.760Z,46.97
2023-02-19T13:35:47.928Z,45.14
2023-02-19T13:38:17.796Z,45.93
2023-02-19T13:40:57.989Z,43.75
2023-02-19T13:43:35.847Z,45.45
2023-02-19T13:46:52.074Z,45.39
2023-02-19T13:49:49.786Z,44.99
2023-02-19T13:52:41.460Z,45.54
2023-02-19T14:09:49.293Z,44.25
2023-02-19T14:12:23.266Z,44.58
2023-02-19T14:14:53.279Z,43.94
2023-02-19T14:21:43.928Z,44.27
2023-02-19T14:24:15.913Z,44.50
2023-02-19T14:26:46.631Z,44.24
2023-02-19T14:30:10.094Z,44.98
2023-02-19T14:32:43.614Z,44.67
2023-02-19T14:35:20.862Z,44.54
2023-02-19T14:37:51.452Z,45.11
2023-02-19T14:40:25.139Z,44.73
2023-02-19T14:43:01.032Z,45.48
2023-02-19T14:45:35.352Z,44.97
2023-02-19T14:48:04.884Z,45.93
2023-02-19T14:50:36.145Z,46.29
2023-02-19T14:53:08.410Z,46.91
2023-02-19T14:55:42.615Z,44.88
2023-02-19T14:58:18.317Z,46.53
2023-02-19T15:00:47.704Z,46.65
2023-02-19T15:03:29.263Z,46.75
2023-02-19T15:06:03.576Z,46.14
2023-02-19T15:08:39.381Z,46.50
2023-02-19T15:11:13.866Z,46.47
2023-02-19T15:13:45.853Z,46.34
2023-02-19T15:16:20.692Z,46.72
2023-02-19T15:18:51.882Z,46.70
2023-02-19T15:21:25.800Z,46.49
2023-02-19T15:23:57.008Z,47.08
2023-02-19T15:26:34.168Z,47.23
2023-02-19T15:29:10.924Z,46.92
2023-02-19T15:31:48.481Z,47.58
2023-02-19T15:34:20.143Z,47.77
2023-02-19T15:36:51.652Z,47.63
2023-02-19T15:39:25.613Z,48.53
2023-02-19T15:42:00.227Z,48.00
2023-02-19T15:44:37.384Z,48.43
2023-02-19T15:47:14.624Z,48.77
2023-02-19T15:49:51.112Z,48.71
2023-02-19T15:52:30.000Z,48.96
2023-02-19T15:55:03.681Z,49.24
2023-02-19T15:57:36.966Z,49.51
2023-02-19T16:00:14.868Z,49.57
2023-02-19T16:02:44.520Z,49.68
2023-02-19T16:05:17.873Z,49.72
2023-02-19T16:07:47.264Z,50.07
2023-02-19T16:10:23.035Z,50.05
2023-02-19T16:12:59.992Z,50.13
2023-02-19T16:15:33.045Z,50.27
2023-02-19T16:18:03.147Z,50.71
2023-02-19T16:20:34.862Z,50.76
2023-02-19T16:23:11.680Z,50.84
2023-02-19T16:25:44.214Z,51.71
2023-02-19T16:28:15.972Z,51.83
2023-02-19T16:30:46.683Z,51.87
2023-02-19T16:33:39.849Z,51.83
2023-02-19T17:00:51.922Z,53.48
2023-02-19T17:44:02.955Z,56.17
2023-02-19T17:51:31.835Z,56.24
2023-02-19T17:54:26.105Z,56.19
2023-02-19T18:16:38.047Z,56.87
2023-02-19T18:19:58.011Z,56.80
2023-02-19T18:22:27.349Z,56.70
2023-02-19T18:24:56.929Z,56.88
2023-02-19T18:27:26.051Z,57.38
2023-02-19T18:34:44.226Z,57.35
2023-02-19T18:37:13.717Z,57.62
2023-02-19T18:39:44.000Z,58.04
2023-02-19T18:42:14.178Z,59.29
2023-02-19T18:44:43.826Z,59.36
2023-02-19T18:47:13.449Z,59.24
2023-02-19T18:49:48.496Z,61.23
2023-02-19T18:52:20.311Z,60.83
2023-02-19T18:54:51.761Z,61.67
2023-02-19T18:57:22.441Z,62.01
2023-02-19T18:59:51.756Z,62.33
2023-02-19T19:02:21.781Z,61.52
2023-02-19T19:04:54.129Z,62.59
2023-02-19T19:07:23.944Z,63.17
2023-02-19T19:09:53.418Z,63.11
2023-02-19T19:12:22.908Z,63.88
2023-02-19T19:14:52.228Z,64.13
2023-02-19T19:17:21.605Z,63.47
2023-02-19T19:19:52.054Z,64.75
2023-02-19T19:22:22.882Z,64.50
2023-02-19T19:24:52.141Z,64.89
2023-02-19T19:27:21.906Z,64.96
2023-02-19T19:29:51.114Z,64.75
2023-02-19T19:32:20.536Z,64.94
2023-02-19T19:34:51.154Z,64.78
2023-02-19T19:37:20.556Z,65.08
2023-02-19T19:39:49.596Z,65.65
2023-02-19T19:42:18.904Z,65.74
2023-02-19T19:44:48.169Z,67.06
2023-02-19T19:47:17.562Z,66.59
2023-02-19T19:49:48.319Z,66.23
2023-02-19T19:52:19.175Z,66.71
2023-02-19T19:54:48.708Z,67.46
2023-02-19T19:57:18.406Z,68.27
2023-02-19T19:59:51.413Z,69.74
2023-02-19T20:02:21.240Z,69.92
2023-02-19T20:04:50.411Z,69.93
2023-02-19T20:07:21.450Z,68.49
2023-02-19T20:09:51.213Z,70.63
2023-02-19T20:12:20.599Z,69.65
2023-02-19T20:14:49.644Z,69.15
2023-02-19T20:17:19.423Z,69.67
2023-02-19T20:19:48.708Z,69.35
2023-02-19T20:22:18.282Z,70.77
2023-02-19T20:24:51.770Z,69.54
2023-02-19T20:27:21.836Z,69.13
2023-02-19T20:29:51.287Z,69.15
2023-02-19T20:32:20.789Z,69.67
2023-02-19T20:34:51.324Z,68.84
2023-02-19T20:37:20.740Z,71.32
2023-02-19T20:39:51.104Z,71.19
2023-02-19T20:42:20.656Z,71.03
2023-02-19T20:44:49.710Z,71.87
2023-02-19T20:47:19.037Z,71.86
2023-02-19T20:49:48.204Z,71.42
2023-02-19T20:52:19.164Z,71.59
2023-02-19T20:54:50.891Z,72.19
2023-02-19T20:57:20.495Z,72.39
2023-02-19T20:59:50.943Z,72.11
2023-02-19T21:02:23.321Z,72.12
2023-02-19T21:04:52.619Z,71.49
2023-02-19T21:07:21.871Z,72.10
2023-02-19T21:09:52.657Z,72.25
2023-02-19T21:12:22.604Z,72.40
2023-02-19T21:14:51.823Z,73.79
2023-02-19T21:17:21.404Z,73.94
2023-02-19T21:19:50.411Z,74.26
2023-02-19T21:22:19.889Z,73.58
2023-02-19T21:24:53.709Z,74.45
2023-02-19T21:27:23.045Z,74.96
2023-02-19T21:29:52.185Z,74.38
2023-02-19T21:32:21.781Z,75.28
2023-02-19T21:34:51.292Z,75.30
2023-02-19T21:37:20.681Z,75.30
2023-02-19T21:39:49.986Z,75.44
2023-02-19T21:52:09.220Z,74.84
2023-02-19T21:54:40.317Z,74.60
2023-02-19T21:57:11.556Z,75.13
2023-02-19T21:59:44.047Z,74.60
2023-02-19T22:02:14.478Z,74.71
2023-02-19T22:04:45.301Z,74.36
2023-02-19T22:07:17.088Z,74.75
2023-02-19T22:09:47.112Z,74.93
2023-02-19T22:12:16.293Z,74.94
2023-02-19T22:14:45.924Z,75.22
2023-02-19T22:17:15.456Z,75.67
2023-02-19T22:19:44.798Z,76.22
2023-02-19T22:22:15.434Z,76.82
2023-02-19T22:24:44.909Z,76.74
2023-02-19T22:27:16.144Z,76.89
2023-02-19T22:29:45.596Z,76.20
2023-02-19T22:32:14.635Z,76.45
2023-02-19T22:34:44.084Z,76.68
2023-02-19T22:37:14.459Z,76.84
2023-02-19T22:39:43.730Z,76.98
2023-02-19T22:42:12.748Z,77.46
2023-02-19T22:44:44.576Z,78.79
2023-02-19T22:47:13.640Z,77.99
2023-02-19T22:49:43.964Z,78.16
2023-02-19T22:52:15.114Z,79.05
2023-02-19T22:54:44.469Z,79.30
2023-02-19T22:57:13.592Z,78.70
2023-02-19T22:59:43.077Z,78.29
2023-02-19T23:02:12.075Z,78.71
2023-02-19T23:04:41.398Z,79.71
2023-02-19T23:07:10.804Z,79.06
2023-02-19T23:09:41.486Z,80.23
2023-02-19T23:12:12.588Z,79.82
2023-02-19T23:14:41.987Z,79.51
2023-02-19T23:17:11.040Z,79.80
2023-02-19T23:19:40.426Z,79.44
2023-02-19T23:22:09.657Z,79.68
2023-02-19T23:24:40.681Z,79.95
2023-02-19T23:27:09.665Z,79.85
2023-02-19T23:29:38.940Z,80.18
2023-02-19T23:32:08.132Z,79.51
2023-02-19T23:34:37.461Z,79.75
2023-02-19T23:37:06.702Z,79.14
2023-02-19T23:39:36.017Z,79.30
2023-02-19T23:42:06.510Z,79.14
2023-02-19T23:44:35.903Z,79.56
2023-02-19T23:47:04.880Z,79.31
2023-02-19T23:49:34.252Z,79.20
2023-02-19T23:52:03.380Z,78.70
2023-02-19T23:54:32.825Z,78.48
2023-02-19T23:57:01.956Z,78.20
2023-02-19T23:59:32.726Z,78.30
